sensor_id;sensor_type;location;lat;lon;timestamp;temperature;humidity
53498;DHT22;39382;47.168;16.008;2024-02-28T00:01:51;8.10;99.90
53498;DHT22;39382;47.168;16.008;2024-02-28T00:04:17;8.10;99.90
53498;DHT22;39382;47.168;16.008;2024-02-28T00:06:42;8.10;99.90
53498;DHT22;39382;47.168;16.008;2024-02-28T00:09:08;8.10;99.90
53498;DHT22;39382;47.168;16.008;2024-02-28T00:11:33;8.10;99.90
53498;DHT22;39382;47.168;16.008;2024-02-28T00:13:59;8.00;99.90
53498;DHT22;39382;47.168;16.008;2024-02-28T00:16:28;8.00;99.90
53498;DHT22;39382;47.168;16.008;2024-02-28T00:18:53;8.10;99.90
53498;DHT22;39382;47.168;16.008;2024-02-28T00:21:19;8.10;99.90
53498;DHT22;39382;47.168;16.008;2024-02-28T00:23:45;8.10;99.90
53498;DHT22;39382;47.168;16.008;2024-02-28T00:26:12;8.10;99.90
53498;DHT22;39382;47.168;16.008;2024-02-28T00:28:37;8.10;99.90
53498;DHT22;39382;47.168;16.008;2024-02-28T00:31:03;8.10;99.90
53498;DHT22;39382;47.168;16.008;2024-02-28T00:33:29;8.10;99.90
53498;DHT22;39382;47.168;16.008;2024-02-28T00:35:54;8.10;99.90
53498;DHT22;39382;47.168;16.008;2024-02-28T00:38:20;8.10;99.90
53498;DHT22;39382;47.168;16.008;2024-02-28T00:40:46;8.10;99.90
53498;DHT22;39382;47.168;16.008;2024-02-28T00:43:11;8.10;99.90
53498;DHT22;39382;47.168;16.008;2024-02-28T00:45:38;8.10;99.90
53498;DHT22;39382;47.168;16.008;2024-02-28T00:48:04;8.10;99.90
53498;DHT22;39382;47.168;16.008;2024-02-28T00:50:29;8.00;99.90
53498;DHT22;39382;47.168;16.008;2024-02-28T00:52:55;8.00;99.90
53498;DHT22;39382;47.168;16.008;2024-02-28T00:55:20;7.90;99.90
53498;DHT22;39382;47.168;16.008;2024-02-28T00:57:46;7.90;99.90
53498;DHT22;39382;47.168;16.008;2024-02-28T01:00:12;7.80;99.90
53498;DHT22;39382;47.168;16.008;2024-02-28T01:02:39;7.90;99.90
53498;DHT22;39382;47.168;16.008;2024-02-28T01:05:05;7.80;99.90
53498;DHT22;39382;47.168;16.008;2024-02-28T01:07:30;7.80;99.90
53498;DHT22;39382;47.168;16.008;2024-02-28T01:09:56;7.70;99.90
53498;DHT22;39382;47.168;16.008;2024-02-28T01:12:21;7.70;99.90
53498;DHT22;39382;47.168;16.008;2024-02-28T01:14:47;7.60;99.90
53498;DHT22;39382;47.168;16.008;2024-02-28T01:17:13;7.60;99.90
53498;DHT22;39382;47.168;16.008;2024-02-28T01:19:38;7.60;99.90
53498;DHT22;39382;47.168;16.008;2024-02-28T01:22:04;7.50;99.90
53498;DHT22;39382;47.168;16.008;2024-02-28T01:24:30;7.60;99.90
53498;DHT22;39382;47.168;16.008;2024-02-28T01:26:55;7.50;99.90
53498;DHT22;39382;47.168;16.008;2024-02-28T01:29:21;7.50;99.90
53498;DHT22;39382;47.168;16.008;2024-02-28T01:31:47;7.50;99.90
53498;DHT22;39382;47.168;16.008;2024-02-28T01:34:12;7.50;99.90
53498;DHT22;39382;47.168;16.008;2024-02-28T01:36:38;7.40;99.90
53498;DHT22;39382;47.168;16.008;2024-02-28T01:39:03;7.40;99.90
53498;DHT22;39382;47.168;16.008;2024-02-28T01:41:29;7.30;99.90
53498;DHT22;39382;47.168;16.008;2024-02-28T01:43:55;7.40;99.90
53498;DHT22;39382;47.168;16.008;2024-02-28T01:46:23;7.30;99.90
53498;DHT22;39382;47.168;16.008;2024-02-28T01:48:49;7.30;99.90
53498;DHT22;39382;47.168;16.008;2024-02-28T01:51:16;7.20;99.90
53498;DHT22;39382;47.168;16.008;2024-02-28T01:53:42;7.10;99.90
53498;DHT22;39382;47.168;16.008;2024-02-28T01:56:08;7.20;99.90
53498;DHT22;39382;47.168;16.008;2024-02-28T01:58:34;7.10;99.90
53498;DHT22;39382;47.168;16.008;2024-02-28T02:01:01;7.10;99.90
53498;DHT22;39382;47.168;16.008;2024-02-28T02:03:28;7.00;99.90
53498;DHT22;39382;47.168;16.008;2024-02-28T02:05:54;7.00;99.90
53498;DHT22;39382;47.168;16.008;2024-02-28T02:08:21;7.00;99.90
53498;DHT22;39382;47.168;16.008;2024-02-28T02:10:47;7.10;99.90
53498;DHT22;39382;47.168;16.008;2024-02-28T02:13:13;7.00;99.90
53498;DHT22;39382;47.168;16.008;2024-02-28T02:15:38;7.10;99.90
53498;DHT22;39382;47.168;16.008;2024-02-28T02:18:04;7.00;99.90
53498;DHT22;39382;47.168;16.008;2024-02-28T02:20:32;7.00;99.90
53498;DHT22;39382;47.168;16.008;2024-02-28T02:22:59;6.90;99.90
53498;DHT22;39382;47.168;16.008;2024-02-28T02:25:25;6.90;99.90
53498;DHT22;39382;47.168;16.008;2024-02-28T02:27:50;6.90;99.90
53498;DHT22;39382;47.168;16.008;2024-02-28T02:30:16;6.80;99.90
53498;DHT22;39382;47.168;16.008;2024-02-28T02:32:42;6.80;99.90
53498;DHT22;39382;47.168;16.008;2024-02-28T02:35:08;6.40;99.90
53498;DHT22;39382;47.168;16.008;2024-02-28T02:37:33;6.60;99.90
53498;DHT22;39382;47.168;16.008;2024-02-28T02:39:59;6.50;99.90
53498;DHT22;39382;47.168;16.008;2024-02-28T02:42:25;6.50;99.90
53498;DHT22;39382;47.168;16.008;2024-02-28T02:44:50;6.40;99.90
53498;DHT22;39382;47.168;16.008;2024-02-28T02:47:16;6.30;99.90
53498;DHT22;39382;47.168;16.008;2024-02-28T02:49:41;6.30;99.90
53498;DHT22;39382;47.168;16.008;2024-02-28T02:52:07;6.30;99.90
53498;DHT22;39382;47.168;16.008;2024-02-28T02:54:33;6.20;99.90
53498;DHT22;39382;47.168;16.008;2024-02-28T02:56:58;6.10;99.90
53498;DHT22;39382;47.168;16.008;2024-02-28T02:59:24;6.10;99.90
53498;DHT22;39382;47.168;16.008;2024-02-28T03:01:50;6.10;99.90
53498;DHT22;39382;47.168;16.008;2024-02-28T03:04:16;6.10;99.90
53498;DHT22;39382;47.168;16.008;2024-02-28T03:06:42;6.10;99.90
53498;DHT22;39382;47.168;16.008;2024-02-28T03:09:07;6.00;99.90
53498;DHT22;39382;47.168;16.008;2024-02-28T03:11:33;5.90;99.90
53498;DHT22;39382;47.168;16.008;2024-02-28T03:14:00;5.90;99.90
53498;DHT22;39382;47.168;16.008;2024-02-28T03:16:26;5.90;99.90
53498;DHT22;39382;47.168;16.008;2024-02-28T03:18:52;5.90;99.90
53498;DHT22;39382;47.168;16.008;2024-02-28T03:21:17;5.90;99.90
53498;DHT22;39382;47.168;16.008;2024-02-28T03:23:43;5.90;99.90
53498;DHT22;39382;47.168;16.008;2024-02-28T03:26:09;5.80;99.90
53498;DHT22;39382;47.168;16.008;2024-02-28T03:28:34;5.70;99.90
53498;DHT22;39382;47.168;16.008;2024-02-28T03:31:00;5.70;99.90
53498;DHT22;39382;47.168;16.008;2024-02-28T03:33:25;5.70;99.90
53498;DHT22;39382;47.168;16.008;2024-02-28T03:35:51;5.70;99.90
53498;DHT22;39382;47.168;16.008;2024-02-28T03:38:17;5.60;99.90
53498;DHT22;39382;47.168;16.008;2024-02-28T03:40:42;5.60;99.90
53498;DHT22;39382;47.168;16.008;2024-02-28T03:43:08;5.60;99.90
53498;DHT22;39382;47.168;16.008;2024-02-28T03:45:37;5.60;99.90
53498;DHT22;39382;47.168;16.008;2024-02-28T03:48:04;5.60;99.90
53498;DHT22;39382;47.168;16.008;2024-02-28T03:50:30;5.60;99.90
53498;DHT22;39382;47.168;16.008;2024-02-28T03:52:55;5.60;99.90
53498;DHT22;39382;47.168;16.008;2024-02-28T03:55:21;5.60;99.90
53498;DHT22;39382;47.168;16.008;2024-02-28T03:57:47;5.60;99.90
53498;DHT22;39382;47.168;16.008;2024-02-28T04:00:13;5.50;99.90
53498;DHT22;39382;47.168;16.008;2024-02-28T04:02:39;5.50;99.90
53498;DHT22;39382;47.168;16.008;2024-02-28T04:05:05;5.50;99.90
53498;DHT22;39382;47.168;16.008;2024-02-28T04:07:31;5.50;99.90
53498;DHT22;39382;47.168;16.008;2024-02-28T04:10:00;5.50;99.90
53498;DHT22;39382;47.168;16.008;2024-02-28T04:12:25;5.50;99.90
53498;DHT22;39382;47.168;16.008;2024-02-28T04:14:51;5.40;99.90
53498;DHT22;39382;47.168;16.008;2024-02-28T04:17:16;5.40;99.90
53498;DHT22;39382;47.168;16.008;2024-02-28T04:19:42;5.40;99.90
53498;DHT22;39382;47.168;16.008;2024-02-28T04:22:08;5.40;99.90
53498;DHT22;39382;47.168;16.008;2024-02-28T04:24:33;5.30;99.90
53498;DHT22;39382;47.168;16.008;2024-02-28T04:26:59;5.30;99.90
53498;DHT22;39382;47.168;16.008;2024-02-28T04:29:25;5.30;99.90
53498;DHT22;39382;47.168;16.008;2024-02-28T04:31:51;5.30;99.90
53498;DHT22;39382;47.168;16.008;2024-02-28T04:34:16;5.30;99.90
53498;DHT22;39382;47.168;16.008;2024-02-28T04:36:42;5.30;99.90
53498;DHT22;39382;47.168;16.008;2024-02-28T04:39:07;5.30;99.90
53498;DHT22;39382;47.168;16.008;2024-02-28T04:41:34;5.30;99.90
53498;DHT22;39382;47.168;16.008;2024-02-28T04:44:00;5.30;99.90
53498;DHT22;39382;47.168;16.008;2024-02-28T04:46:25;5.30;99.90
53498;DHT22;39382;47.168;16.008;2024-02-28T04:48:51;5.30;99.90
53498;DHT22;39382;47.168;16.008;2024-02-28T04:51:16;5.30;99.90
53498;DHT22;39382;47.168;16.008;2024-02-28T04:53:46;5.20;99.90
53498;DHT22;39382;47.168;16.008;2024-02-28T04:56:11;5.20;99.90
53498;DHT22;39382;47.168;16.008;2024-02-28T04:58:38;5.20;99.90
53498;DHT22;39382;47.168;16.008;2024-02-28T05:01:04;5.10;99.90
53498;DHT22;39382;47.168;16.008;2024-02-28T05:03:29;5.10;99.90
53498;DHT22;39382;47.168;16.008;2024-02-28T05:05:55;5.20;99.90
53498;DHT22;39382;47.168;16.008;2024-02-28T05:08:21;5.10;99.90
53498;DHT22;39382;47.168;16.008;2024-02-28T05:10:47;5.10;99.90
53498;DHT22;39382;47.168;16.008;2024-02-28T05:13:12;5.10;99.90
53498;DHT22;39382;47.168;16.008;2024-02-28T05:15:38;5.10;99.90
53498;DHT22;39382;47.168;16.008;2024-02-28T05:18:04;5.10;99.90
53498;DHT22;39382;47.168;16.008;2024-02-28T05:20:30;5.10;99.90
53498;DHT22;39382;47.168;16.008;2024-02-28T05:22:55;5.00;99.90
53498;DHT22;39382;47.168;16.008;2024-02-28T05:25:21;5.00;99.90
53498;DHT22;39382;47.168;16.008;2024-02-28T05:27:46;5.00;99.90
53498;DHT22;39382;47.168;16.008;2024-02-28T05:30:12;5.00;99.90
53498;DHT22;39382;47.168;16.008;2024-02-28T05:32:38;4.90;99.90
53498;DHT22;39382;47.168;16.008;2024-02-28T05:35:04;4.90;99.90
53498;DHT22;39382;47.168;16.008;2024-02-28T05:37:29;4.90;99.90
53498;DHT22;39382;47.168;16.008;2024-02-28T05:39:55;4.80;99.90
53498;DHT22;39382;47.168;16.008;2024-02-28T05:42:21;4.80;99.90
53498;DHT22;39382;47.168;16.008;2024-02-28T05:44:49;4.80;99.90
53498;DHT22;39382;47.168;16.008;2024-02-28T05:47:15;4.80;99.90
53498;DHT22;39382;47.168;16.008;2024-02-28T05:49:42;4.80;99.90
53498;DHT22;39382;47.168;16.008;2024-02-28T05:52:07;4.90;99.90
53498;DHT22;39382;47.168;16.008;2024-02-28T05:54:33;4.90;99.90
53498;DHT22;39382;47.168;16.008;2024-02-28T05:57:01;4.90;99.90
53498;DHT22;39382;47.168;16.008;2024-02-28T05:59:27;4.90;99.90
53498;DHT22;39382;47.168;16.008;2024-02-28T06:01:53;4.90;99.90
53498;DHT22;39382;47.168;16.008;2024-02-28T06:04:18;4.90;99.90
53498;DHT22;39382;47.168;16.008;2024-02-28T06:06:44;5.00;99.90
53498;DHT22;39382;47.168;16.008;2024-02-28T06:09:10;5.00;99.90
53498;DHT22;39382;47.168;16.008;2024-02-28T06:11:36;5.90;99.90
53498;DHT22;39382;47.168;16.008;2024-02-28T06:14:02;5.70;99.90
53498;DHT22;39382;47.168;16.008;2024-02-28T06:16:29;5.50;99.90
53498;DHT22;39382;47.168;16.008;2024-02-28T06:18:55;5.50;99.90
53498;DHT22;39382;47.168;16.008;2024-02-28T06:21:24;5.50;99.90
53498;DHT22;39382;47.168;16.008;2024-02-28T06:23:50;5.40;99.90
53498;DHT22;39382;47.168;16.008;2024-02-28T06:26:15;5.40;99.90
53498;DHT22;39382;47.168;16.008;2024-02-28T06:28:44;5.50;99.90
53498;DHT22;39382;47.168;16.008;2024-02-28T06:31:16;5.50;99.90
53498;DHT22;39382;47.168;16.008;2024-02-28T06:33:42;5.50;99.90
53498;DHT22;39382;47.168;16.008;2024-02-28T06:36:08;5.60;99.90
53498;DHT22;39382;47.168;16.008;2024-02-28T06:38:34;5.60;99.90
53498;DHT22;39382;47.168;16.008;2024-02-28T06:41:05;5.70;99.90
53498;DHT22;39382;47.168;16.008;2024-02-28T06:43:33;5.70;99.90
53498;DHT22;39382;47.168;16.008;2024-02-28T06:45:59;5.80;99.90
53498;DHT22;39382;47.168;16.008;2024-02-28T06:48:25;5.80;99.90
53498;DHT22;39382;47.168;16.008;2024-02-28T06:50:50;5.90;99.90
53498;DHT22;39382;47.168;16.008;2024-02-28T06:53:16;6.00;99.90
53498;DHT22;39382;47.168;16.008;2024-02-28T06:55:42;6.00;99.90
53498;DHT22;39382;47.168;16.008;2024-02-28T06:58:08;5.90;99.90
53498;DHT22;39382;47.168;16.008;2024-02-28T07:00:33;6.00;99.90
53498;DHT22;39382;47.168;16.008;2024-02-28T07:02:59;5.90;99.90
53498;DHT22;39382;47.168;16.008;2024-02-28T07:05:25;6.00;99.90
53498;DHT22;39382;47.168;16.008;2024-02-28T07:07:50;6.00;99.90
53498;DHT22;39382;47.168;16.008;2024-02-28T07:10:16;6.10;99.90
53498;DHT22;39382;47.168;16.008;2024-02-28T07:12:42;6.20;99.90
53498;DHT22;39382;47.168;16.008;2024-02-28T07:15:07;6.40;99.90
53498;DHT22;39382;47.168;16.008;2024-02-28T07:17:33;6.40;99.90
53498;DHT22;39382;47.168;16.008;2024-02-28T07:19:59;6.40;99.90
53498;DHT22;39382;47.168;16.008;2024-02-28T07:22:25;6.50;99.90
53498;DHT22;39382;47.168;16.008;2024-02-28T07:24:50;6.50;99.90
53498;DHT22;39382;47.168;16.008;2024-02-28T07:27:16;6.60;99.90
53498;DHT22;39382;47.168;16.008;2024-02-28T07:29:41;6.70;99.90
53498;DHT22;39382;47.168;16.008;2024-02-28T07:32:07;6.80;99.90
53498;DHT22;39382;47.168;16.008;2024-02-28T07:34:33;6.90;99.90
53498;DHT22;39382;47.168;16.008;2024-02-28T07:36:59;6.90;99.90
53498;DHT22;39382;47.168;16.008;2024-02-28T07:39:25;7.00;99.90
53498;DHT22;39382;47.168;16.008;2024-02-28T07:41:51;7.20;99.90
53498;DHT22;39382;47.168;16.008;2024-02-28T07:44:16;7.20;99.90
53498;DHT22;39382;47.168;16.008;2024-02-28T07:46:42;7.20;99.90
53498;DHT22;39382;47.168;16.008;2024-02-28T07:49:08;7.30;99.90
53498;DHT22;39382;47.168;16.008;2024-02-28T07:51:33;7.40;99.90
53498;DHT22;39382;47.168;16.008;2024-02-28T07:53:59;7.50;99.90
53498;DHT22;39382;47.168;16.008;2024-02-28T07:56:25;7.70;99.90
53498;DHT22;39382;47.168;16.008;2024-02-28T07:58:51;7.80;99.90
53498;DHT22;39382;47.168;16.008;2024-02-28T08:01:17;7.90;99.90
53498;DHT22;39382;47.168;16.008;2024-02-28T08:03:43;8.10;99.90
53498;DHT22;39382;47.168;16.008;2024-02-28T08:06:08;8.10;99.90
53498;DHT22;39382;47.168;16.008;2024-02-28T08:08:35;8.20;99.90
53498;DHT22;39382;47.168;16.008;2024-02-28T08:11:01;8.40;99.90
53498;DHT22;39382;47.168;16.008;2024-02-28T08:13:26;8.50;99.90
53498;DHT22;39382;47.168;16.008;2024-02-28T08:15:55;8.60;99.90
53498;DHT22;39382;47.168;16.008;2024-02-28T08:18:21;8.70;99.90
53498;DHT22;39382;47.168;16.008;2024-02-28T08:20:46;8.80;99.90
53498;DHT22;39382;47.168;16.008;2024-02-28T08:23:12;8.80;99.90
53498;DHT22;39382;47.168;16.008;2024-02-28T08:25:38;9.00;99.90
53498;DHT22;39382;47.168;16.008;2024-02-28T08:28:04;9.10;99.90
53498;DHT22;39382;47.168;16.008;2024-02-28T08:30:29;9.20;99.90
53498;DHT22;39382;47.168;16.008;2024-02-28T08:32:56;9.30;99.90
53498;DHT22;39382;47.168;16.008;2024-02-28T08:35:23;9.30;99.90
53498;DHT22;39382;47.168;16.008;2024-02-28T08:37:49;9.40;99.90
53498;DHT22;39382;47.168;16.008;2024-02-28T08:40:15;9.50;99.90
53498;DHT22;39382;47.168;16.008;2024-02-28T08:42:41;9.60;99.90
53498;DHT22;39382;47.168;16.008;2024-02-28T08:45:07;9.70;99.90
53498;DHT22;39382;47.168;16.008;2024-02-28T08:47:33;9.80;99.90
53498;DHT22;39382;47.168;16.008;2024-02-28T08:49:59;9.90;99.90
53498;DHT22;39382;47.168;16.008;2024-02-28T08:52:24;10.00;99.90
53498;DHT22;39382;47.168;16.008;2024-02-28T08:54:50;10.10;99.90
53498;DHT22;39382;47.168;16.008;2024-02-28T08:57:16;10.20;99.90
53498;DHT22;39382;47.168;16.008;2024-02-28T08:59:42;10.30;99.90
53498;DHT22;39382;47.168;16.008;2024-02-28T09:02:08;10.30;99.90
53498;DHT22;39382;47.168;16.008;2024-02-28T09:04:34;10.40;99.90
53498;DHT22;39382;47.168;16.008;2024-02-28T09:06:59;10.50;99.90
53498;DHT22;39382;47.168;16.008;2024-02-28T09:09:26;10.70;99.90
53498;DHT22;39382;47.168;16.008;2024-02-28T09:11:51;10.70;99.90
53498;DHT22;39382;47.168;16.008;2024-02-28T09:14:17;10.80;99.90
53498;DHT22;39382;47.168;16.008;2024-02-28T09:16:42;10.90;99.90
53498;DHT22;39382;47.168;16.008;2024-02-28T09:19:08;11.20;99.90
53498;DHT22;39382;47.168;16.008;2024-02-28T09:21:34;11.30;99.90
53498;DHT22;39382;47.168;16.008;2024-02-28T09:24:00;11.40;99.90
53498;DHT22;39382;47.168;16.008;2024-02-28T09:26:27;11.50;99.90
53498;DHT22;39382;47.168;16.008;2024-02-28T09:28:52;11.70;99.90
53498;DHT22;39382;47.168;16.008;2024-02-28T09:31:18;11.90;99.90
53498;DHT22;39382;47.168;16.008;2024-02-28T09:33:43;11.80;99.90
53498;DHT22;39382;47.168;16.008;2024-02-28T09:36:10;11.90;99.90
53498;DHT22;39382;47.168;16.008;2024-02-28T09:38:37;12.00;99.90
53498;DHT22;39382;47.168;16.008;2024-02-28T09:41:03;12.40;99.90
53498;DHT22;39382;47.168;16.008;2024-02-28T09:43:35;12.50;99.90
53498;DHT22;39382;47.168;16.008;2024-02-28T09:46:05;12.40;99.90
53498;DHT22;39382;47.168;16.008;2024-02-28T09:48:32;12.40;99.90
53498;DHT22;39382;47.168;16.008;2024-02-28T09:50:59;12.40;99.90
53498;DHT22;39382;47.168;16.008;2024-02-28T09:53:26;12.50;99.90
53498;DHT22;39382;47.168;16.008;2024-02-28T09:55:51;12.60;99.90
53498;DHT22;39382;47.168;16.008;2024-02-28T09:58:18;12.50;99.90
53498;DHT22;39382;47.168;16.008;2024-02-28T10:00:46;12.60;99.90
53498;DHT22;39382;47.168;16.008;2024-02-28T10:03:19;12.70;99.90
53498;DHT22;39382;47.168;16.008;2024-02-28T10:05:48;12.80;99.90
53498;DHT22;39382;47.168;16.008;2024-02-28T10:08:13;12.90;99.90
53498;DHT22;39382;47.168;16.008;2024-02-28T10:10:47;13.10;99.90
53498;DHT22;39382;47.168;16.008;2024-02-28T10:13:15;13.30;99.90
53498;DHT22;39382;47.168;16.008;2024-02-28T10:15:41;13.40;99.90
53498;DHT22;39382;47.168;16.008;2024-02-28T10:18:06;13.50;99.90
53498;DHT22;39382;47.168;16.008;2024-02-28T10:20:32;13.50;99.90
53498;DHT22;39382;47.168;16.008;2024-02-28T10:22:58;13.60;99.90
53498;DHT22;39382;47.168;16.008;2024-02-28T10:25:23;13.80;99.90
53498;DHT22;39382;47.168;16.008;2024-02-28T10:27:49;13.80;99.90
53498;DHT22;39382;47.168;16.008;2024-02-28T10:30:15;14.00;99.90
53498;DHT22;39382;47.168;16.008;2024-02-28T10:32:49;14.10;99.90
53498;DHT22;39382;47.168;16.008;2024-02-28T10:35:17;14.20;99.90
53498;DHT22;39382;47.168;16.008;2024-02-28T10:37:51;14.20;99.90
53498;DHT22;39382;47.168;16.008;2024-02-28T10:40:17;14.30;99.90
53498;DHT22;39382;47.168;16.008;2024-02-28T10:42:43;14.40;99.90
53498;DHT22;39382;47.168;16.008;2024-02-28T10:45:12;14.30;99.90
53498;DHT22;39382;47.168;16.008;2024-02-28T10:47:41;14.40;99.90
53498;DHT22;39382;47.168;16.008;2024-02-28T10:50:07;14.50;99.90
53498;DHT22;39382;47.168;16.008;2024-02-28T10:52:34;14.50;99.90
53498;DHT22;39382;47.168;16.008;2024-02-28T10:55:02;14.60;99.90
53498;DHT22;39382;47.168;16.008;2024-02-28T10:57:29;14.60;99.90
53498;DHT22;39382;47.168;16.008;2024-02-28T10:59:57;14.80;99.90
53498;DHT22;39382;47.168;16.008;2024-02-28T11:02:23;14.90;99.90
53498;DHT22;39382;47.168;16.008;2024-02-28T11:04:53;15.10;99.90
53498;DHT22;39382;47.168;16.008;2024-02-28T11:07:22;15.30;99.90
53498;DHT22;39382;47.168;16.008;2024-02-28T11:09:48;15.30;99.90
53498;DHT22;39382;47.168;16.008;2024-02-28T11:12:28;15.30;99.90
53498;DHT22;39382;47.168;16.008;2024-02-28T11:14:58;15.40;99.90
53498;DHT22;39382;47.168;16.008;2024-02-28T11:17:31;15.50;99.90
53498;DHT22;39382;47.168;16.008;2024-02-28T11:19:57;15.70;99.90
53498;DHT22;39382;47.168;16.008;2024-02-28T11:22:23;15.90;99.90
53498;DHT22;39382;47.168;16.008;2024-02-28T11:24:49;15.50;99.90
53498;DHT22;39382;47.168;16.008;2024-02-28T11:27:17;15.30;99.90
53498;DHT22;39382;47.168;16.008;2024-02-28T11:29:43;15.30;99.70
53498;DHT22;39382;47.168;16.008;2024-02-28T11:32:15;15.30;99.90
53498;DHT22;39382;47.168;16.008;2024-02-28T11:34:41;15.30;99.30
53498;DHT22;39382;47.168;16.008;2024-02-28T11:37:09;15.30;99.60
53498;DHT22;39382;47.168;16.008;2024-02-28T11:39:34;15.40;99.40
53498;DHT22;39382;47.168;16.008;2024-02-28T11:42:19;15.40;99.40
53498;DHT22;39382;47.168;16.008;2024-02-28T11:44:56;15.60;99.90
53498;DHT22;39382;47.168;16.008;2024-02-28T11:47:23;15.80;98.70
53498;DHT22;39382;47.168;16.008;2024-02-28T11:49:49;15.80;98.70
53498;DHT22;39382;47.168;16.008;2024-02-28T11:52:15;16.00;98.00
53498;DHT22;39382;47.168;16.008;2024-02-28T11:54:40;15.90;98.00
53498;DHT22;39382;47.168;16.008;2024-02-28T11:57:07;15.90;97.70
53498;DHT22;39382;47.168;16.008;2024-02-28T11:59:36;15.90;97.00
53498;DHT22;39382;47.168;16.008;2024-02-28T12:02:11;15.90;96.10
53498;DHT22;39382;47.168;16.008;2024-02-28T12:04:37;15.80;97.00
53498;DHT22;39382;47.168;16.008;2024-02-28T12:07:03;15.80;97.00
53498;DHT22;39382;47.168;16.008;2024-02-28T12:09:30;15.90;97.70
53498;DHT22;39382;47.168;16.008;2024-02-28T12:11:55;15.90;98.00
53498;DHT22;39382;47.168;16.008;2024-02-28T12:14:21;15.90;96.90
53498;DHT22;39382;47.168;16.008;2024-02-28T12:16:48;15.90;96.20
53498;DHT22;39382;47.168;16.008;2024-02-28T12:19:14;15.90;96.20
53498;DHT22;39382;47.168;16.008;2024-02-28T12:21:41;16.00;97.50
53498;DHT22;39382;47.168;16.008;2024-02-28T12:24:08;16.10;97.50
53498;DHT22;39382;47.168;16.008;2024-02-28T12:26:35;16.00;98.00
53498;DHT22;39382;47.168;16.008;2024-02-28T12:29:01;16.10;98.30
53498;DHT22;39382;47.168;16.008;2024-02-28T12:31:27;16.00;98.30
53498;DHT22;39382;47.168;16.008;2024-02-28T12:33:53;16.20;98.00
53498;DHT22;39382;47.168;16.008;2024-02-28T12:36:20;16.10;97.00
53498;DHT22;39382;47.168;16.008;2024-02-28T12:38:46;16.10;97.00
53498;DHT22;39382;47.168;16.008;2024-02-28T12:41:12;16.10;96.70
53498;DHT22;39382;47.168;16.008;2024-02-28T12:43:39;16.20;95.60
53498;DHT22;39382;47.168;16.008;2024-02-28T12:46:07;16.10;95.30
53498;DHT22;39382;47.168;16.008;2024-02-28T12:48:39;16.20;95.00
53498;DHT22;39382;47.168;16.008;2024-02-28T12:51:06;16.40;93.90
53498;DHT22;39382;47.168;16.008;2024-02-28T12:53:34;16.50;93.50
53498;DHT22;39382;47.168;16.008;2024-02-28T12:55:59;16.70;92.50
53498;DHT22;39382;47.168;16.008;2024-02-28T12:58:25;16.80;91.00
53498;DHT22;39382;47.168;16.008;2024-02-28T13:00:51;16.80;90.90
53498;DHT22;39382;47.168;16.008;2024-02-28T13:03:17;16.90;90.40
53498;DHT22;39382;47.168;16.008;2024-02-28T13:05:43;16.70;87.70
53498;DHT22;39382;47.168;16.008;2024-02-28T13:08:09;16.60;87.80
53498;DHT22;39382;47.168;16.008;2024-02-28T13:10:35;16.50;87.00
53498;DHT22;39382;47.168;16.008;2024-02-28T13:13:05;16.80;89.00
53498;DHT22;39382;47.168;16.008;2024-02-28T13:15:31;17.00;88.80
53498;DHT22;39382;47.168;16.008;2024-02-28T13:17:57;17.10;87.60
53498;DHT22;39382;47.168;16.008;2024-02-28T13:20:23;17.40;88.90
53498;DHT22;39382;47.168;16.008;2024-02-28T13:22:48;17.50;87.30
53498;DHT22;39382;47.168;16.008;2024-02-28T13:25:14;17.70;86.50
53498;DHT22;39382;47.168;16.008;2024-02-28T13:27:40;17.60;85.30
53498;DHT22;39382;47.168;16.008;2024-02-28T13:30:07;17.60;86.70
53498;DHT22;39382;47.168;16.008;2024-02-28T13:32:32;17.50;88.10
53498;DHT22;39382;47.168;16.008;2024-02-28T13:34:58;17.50;87.10
53498;DHT22;39382;47.168;16.008;2024-02-28T13:37:25;17.40;89.50
53498;DHT22;39382;47.168;16.008;2024-02-28T13:39:50;17.50;88.90
53498;DHT22;39382;47.168;16.008;2024-02-28T13:42:19;17.60;88.20
53498;DHT22;39382;47.168;16.008;2024-02-28T13:44:49;17.60;87.20
53498;DHT22;39382;47.168;16.008;2024-02-28T13:47:15;17.50;87.90
53498;DHT22;39382;47.168;16.008;2024-02-28T13:49:41;17.50;86.80
53498;DHT22;39382;47.168;16.008;2024-02-28T13:52:06;17.60;85.70
53498;DHT22;39382;47.168;16.008;2024-02-28T13:54:32;17.50;85.70
53498;DHT22;39382;47.168;16.008;2024-02-28T13:56:58;17.60;86.20
53498;DHT22;39382;47.168;16.008;2024-02-28T13:59:24;17.30;86.70
53498;DHT22;39382;47.168;16.008;2024-02-28T14:01:50;17.00;88.20
53498;DHT22;39382;47.168;16.008;2024-02-28T14:04:16;17.00;88.90
53498;DHT22;39382;47.168;16.008;2024-02-28T14:06:41;16.80;89.30
53498;DHT22;39382;47.168;16.008;2024-02-28T14:09:07;16.80;89.00
53498;DHT22;39382;47.168;16.008;2024-02-28T14:11:32;16.70;89.70
53498;DHT22;39382;47.168;16.008;2024-02-28T14:13:59;16.50;89.90
53498;DHT22;39382;47.168;16.008;2024-02-28T14:16:25;16.50;90.00
53498;DHT22;39382;47.168;16.008;2024-02-28T14:18:51;16.60;90.00
53498;DHT22;39382;47.168;16.008;2024-02-28T14:21:17;16.60;88.10
53498;DHT22;39382;47.168;16.008;2024-02-28T14:23:42;16.60;89.50
53498;DHT22;39382;47.168;16.008;2024-02-28T14:26:08;16.60;89.00
53498;DHT22;39382;47.168;16.008;2024-02-28T14:28:34;16.60;90.00
53498;DHT22;39382;47.168;16.008;2024-02-28T14:31:00;16.60;89.90
53498;DHT22;39382;47.168;16.008;2024-02-28T14:33:26;16.50;90.00
53498;DHT22;39382;47.168;16.008;2024-02-28T14:35:51;16.50;90.30
53498;DHT22;39382;47.168;16.008;2024-02-28T14:38:17;16.50;90.10
53498;DHT22;39382;47.168;16.008;2024-02-28T14:40:43;16.50;88.90
53498;DHT22;39382;47.168;16.008;2024-02-28T14:43:09;16.50;90.60
53498;DHT22;39382;47.168;16.008;2024-02-28T14:45:35;16.50;90.50
53498;DHT22;39382;47.168;16.008;2024-02-28T14:48:01;16.50;90.70
53498;DHT22;39382;47.168;16.008;2024-02-28T14:50:27;16.40;90.90
53498;DHT22;39382;47.168;16.008;2024-02-28T14:52:53;16.40;91.80
53498;DHT22;39382;47.168;16.008;2024-02-28T14:55:18;16.30;91.90
53498;DHT22;39382;47.168;16.008;2024-02-28T14:57:44;16.30;92.30
53498;DHT22;39382;47.168;16.008;2024-02-28T15:00:10;16.10;92.60
53498;DHT22;39382;47.168;16.008;2024-02-28T15:02:44;16.10;92.80
53498;DHT22;39382;47.168;16.008;2024-02-28T15:05:11;16.00;93.10
53498;DHT22;39382;47.168;16.008;2024-02-28T15:07:37;16.00;93.30
53498;DHT22;39382;47.168;16.008;2024-02-28T15:10:06;16.00;93.50
53498;DHT22;39382;47.168;16.008;2024-02-28T15:12:32;15.90;93.80
53498;DHT22;39382;47.168;16.008;2024-02-28T15:15:02;15.90;94.00
53498;DHT22;39382;47.168;16.008;2024-02-28T15:17:28;15.90;94.10
53498;DHT22;39382;47.168;16.008;2024-02-28T15:19:53;15.90;94.00